Time;durP1;ratioP1;P1;durP2;ratioP2;P2;SDS_P1;SDS_P2;PMS_P1;PMS_P2;Temp;Humidity;BMP_temperature;BMP_pressure;BME280_temperature;BME280_humidity;BME280_pressure;Samples;Min_cycle;Max_cycle;Signal;HPM_P1;HPM_P2
2022/07/03 00:01:23;;;;;;;4.50;2.10;;;17.70;99.90;;;;;;5029242;28;20090;-75
2022/07/03 00:03:49;;;;;;;5.00;1.90;;;17.70;99.90;;;;;;5054896;28;20033;-75
2022/07/03 00:06:15;;;;;;;3.58;1.60;;;17.70;99.90;;;;;;5038200;28;20550;-74
2022/07/03 00:08:40;;;;;;;4.22;1.90;;;17.60;99.90;;;;;;5054631;28;20041;-74
2022/07/03 00:11:06;;;;;;;5.07;2.10;;;17.50;99.90;;;;;;5036764;28;20041;-74
2022/07/03 00:13:32;;;;;;;3.60;1.75;;;17.50;99.90;;;;;;5035651;28;20060;-74
2022/07/03 00:15:58;;;;;;;4.45;1.50;;;17.40;99.90;;;;;;5052587;28;20053;-76
2022/07/03 00:18:23;;;;;;;3.05;1.50;;;17.40;99.90;;;;;;5054467;28;20477;-75
2022/07/03 00:20:54;;;;;;;1.92;1.10;;;17.50;99.90;;;;;;5068978;28;20489;-75
2022/07/03 00:23:22;;;;;;;2.97;1.60;;;17.40;99.90;;;;;;5048240;28;20036;-75
2022/07/03 00:25:49;;;;;;;3.40;1.45;;;17.40;99.90;;;;;;5054513;28;20420;-74
2022/07/03 00:28:18;;;;;;;4.25;1.40;;;17.40;99.90;;;;;;5053592;28;20102;-76
2022/07/03 00:30:47;;;;;;;4.00;1.60;;;17.40;99.90;;;;;;5039187;28;20099;-75
2022/07/03 00:33:14;;;;;;;3.28;1.73;;;17.30;99.90;;;;;;5034002;28;20111;-76
2022/07/03 00:35:42;;;;;;;4.35;1.70;;;17.30;99.90;;;;;;5034231;28;20485;-75
2022/07/03 00:38:10;;;;;;;3.65;1.65;;;17.20;99.90;;;;;;5034359;28;20045;-73
2022/07/03 00:40:36;;;;;;;4.03;1.98;;;17.20;99.90;;;;;;5046218;28;20080;-75
2022/07/03 00:43:03;;;;;;;2.28;1.75;;;17.10;99.90;;;;;;5052902;28;20469;-75
2022/07/03 00:45:34;;;;;;;5.53;2.33;;;17.10;99.90;;;;;;5053948;28;20123;-74
2022/07/03 00:48:00;;;;;;;3.75;1.80;;;17.00;99.90;;;;;;5053739;28;20044;-74
2022/07/03 00:50:36;;;;;;;4.38;2.00;;;16.90;99.90;;;;;;5053357;28;20041;-74
2022/07/03 00:53:02;;;;;;;6.55;2.45;;;16.80;99.90;;;;;;5053102;28;20040;-76
2022/07/03 00:55:29;;;;;;;4.30;1.98;;;16.80;99.90;;;;;;5037126;28;20047;-75
2022/07/03 00:57:56;;;;;;;4.53;2.00;;;16.70;99.90;;;;;;5037183;28;20037;-75
2022/07/03 01:00:22;;;;;;;4.03;2.13;;;16.70;99.90;;;;;;5043836;28;20083;-74
2022/07/03 01:02:55;;;;;;;5.05;2.13;;;16.70;99.90;;;;;;5033599;28;20041;-73
2022/07/03 01:05:36;;;;;;;3.70;1.58;;;16.80;99.90;;;;;;5046298;28;20044;-74
2022/07/03 01:08:14;;;;;;;3.22;1.60;;;16.80;99.90;;;;;;5025620;28;20095;-73
2022/07/03 01:10:43;;;;;;;3.92;1.70;;;16.80;99.90;;;;;;5019283;28;20041;-74
2022/07/03 01:13:18;;;;;;;2.53;1.67;;;16.80;99.90;;;;;;5056907;28;20045;-74
2022/07/03 01:16:13;;;;;;;3.03;1.77;;;16.80;99.90;;;;;;5058463;28;20064;-74
2022/07/03 01:18:58;;;;;;;4.88;2.30;;;16.80;99.90;;;;;;5026730;28;20048;-75
2022/07/03 01:21:34;;;;;;;3.38;1.80;;;16.80;99.90;;;;;;5050560;28;20033;-74
2022/07/03 01:24:06;;;;;;;3.83;1.77;;;16.70;99.90;;;;;;5045471;28;20509;-75
2022/07/03 01:26:38;;;;;;;3.22;1.70;;;16.60;99.90;;;;;;5048997;28;20082;-76
2022/07/03 01:29:09;;;;;;;2.28;1.48;;;16.60;99.90;;;;;;5047923;28;20029;-75
2022/07/03 01:31:38;;;;;;;2.58;1.33;;;16.60;99.90;;;;;;5049880;28;20501;-75
2022/07/03 01:34:09;;;;;;;1.98;1.30;;;16.60;99.90;;;;;;5038941;28;20034;-76
2022/07/03 01:36:40;;;;;;;3.67;1.60;;;16.60;99.90;;;;;;5060720;28;20444;-75
2022/07/03 01:39:06;;;;;;;4.85;1.70;;;16.60;99.90;;;;;;5048457;28;20497;-75
2022/07/03 01:41:32;;;;;;;3.38;1.80;;;16.60;99.90;;;;;;5045133;28;20040;-75
2022/07/03 01:44:01;;;;;;;3.90;1.65;;;16.60;99.90;;;;;;5051711;28;20037;-75
2022/07/03 01:46:29;;;;;;;3.55;1.90;;;16.60;99.90;;;;;;5052707;28;20039;-76
2022/07/03 01:48:57;;;;;;;4.03;2.10;;;16.50;99.90;;;;;;5035611;28;20036;-75
2022/07/03 01:51:23;;;;;;;2.97;1.90;;;16.50;99.90;;;;;;5051538;28;20047;-73
2022/07/03 01:53:51;;;;;;;4.88;2.10;;;16.50;99.90;;;;;;5033945;28;20040;-74
2022/07/03 01:56:19;;;;;;;5.07;2.13;;;16.50;99.90;;;;;;5052635;28;20136;-74
2022/07/03 01:58:45;;;;;;;2.60;1.48;;;16.40;99.90;;;;;;5050769;28;20493;-76
2022/07/03 02:01:21;;;;;;;3.03;1.70;;;16.40;99.90;;;;;;5034719;28;20048;-77
2022/07/03 02:04:25;;;;;;;3.42;1.63;;;16.40;99.90;;;;;;5033983;28;20508;-76
2022/07/03 02:07:08;;;;;;;2.65;1.67;;;16.30;99.90;;;;;;5034160;28;20044;-75
2022/07/03 02:09:46;;;;;;;7.55;1.90;;;16.30;99.90;;;;;;5044974;28;20045;-75
2022/07/03 02:12:14;;;;;;;3.85;1.63;;;16.20;99.90;;;;;;5047828;28;20061;-75
2022/07/03 02:14:46;;;;;;;1.75;1.40;;;16.20;99.90;;;;;;5049927;28;20037;-75
2022/07/03 02:17:21;;;;;;;1.48;1.30;;;16.20;99.90;;;;;;5033709;28;20041;-75
2022/07/03 02:20:00;;;;;;;1.20;1.10;;;16.30;99.90;;;;;;5052210;28;20051;-76
2022/07/03 02:22:47;;;;;;;1.00;1.00;;;16.20;99.90;;;;;;5051239;28;20029;-75
2022/07/03 02:25:21;;;;;;;1.33;1.20;;;16.20;99.90;;;;;;5035747;28;20599;-76
2022/07/03 02:27:54;;;;;;;3.08;1.20;;;16.20;99.90;;;;;;5034521;28;20045;-76
2022/07/03 02:30:23;;;;;;;1.42;1.10;;;16.00;99.90;;;;;;5052298;28;20080;-75
2022/07/03 02:32:52;;;;;;;4.05;1.60;;;16.00;99.90;;;;;;5051088;28;20119;-75
2022/07/03 02:35:32;;;;;;;2.90;1.63;;;16.00;99.90;;;;;;5035446;28;20408;-74
2022/07/03 02:38:16;;;;;;;3.22;1.98;;;15.90;99.90;;;;;;5051251;28;20036;-74
2022/07/03 02:41:06;;;;;;;2.22;1.50;;;15.80;99.90;;;;;;5068736;28;20045;-75
2022/07/03 02:43:59;;;;;;;2.72;1.40;;;15.70;99.90;;;;;;5049252;28;20167;-74
2022/07/03 02:46:58;;;;;;;1.17;1.00;;;15.60;99.90;;;;;;5035296;28;20044;-75
2022/07/03 02:49:53;;;;;;;1.00;0.90;;;15.70;99.90;;;;;;5050147;28;20120;-75
2022/07/03 02:52:28;;;;;;;1.58;1.20;;;15.70;99.90;;;;;;5046561;28;20033;-74
2022/07/03 02:54:59;;;;;;;1.38;1.10;;;15.70;99.90;;;;;;5054209;28;20472;-74
2022/07/03 02:57:38;;;;;;;1.03;0.97;;;15.70;99.90;;;;;;5054108;28;20037;-74
2022/07/03 03:00:07;;;;;;;1.38;1.10;;;15.60;99.90;;;;;;5055142;28;20068;-74
2022/07/03 03:02:53;;;;;;;3.17;1.40;;;15.50;99.90;;;;;;5038114;28;20033;-74
2022/07/03 03:05:19;;;;;;;2.35;1.30;;;14.90;99.90;;;;;;5056115;28;20088;-74
2022/07/03 03:08:15;;;;;;;3.30;1.88;;;14.90;99.90;;;;;;5037775;28;20037;-74
2022/07/03 03:10:43;;;;;;;4.65;2.15;;;14.90;99.90;;;;;;5035935;28;20033;-74
2022/07/03 03:13:12;;;;;;;4.65;2.05;;;14.70;99.90;;;;;;5049256;28;20133;-74
2022/07/03 03:15:41;;;;;;;2.97;2.05;;;14.70;99.90;;;;;;5067347;28;20041;-74
2022/07/03 03:18:16;;;;;;;3.40;2.08;;;14.70;99.90;;;;;;5030668;28;20087;-74
2022/07/03 03:20:46;;;;;;;3.30;2.17;;;14.60;99.90;;;;;;5036831;28;20552;-74
2022/07/03 03:23:19;;;;;;;2.85;1.88;;;14.60;99.90;;;;;;5051795;28;20044;-74
2022/07/03 03:25:45;;;;;;;3.70;2.38;;;14.70;99.90;;;;;;5044898;28;20529;-75
2022/07/03 03:28:13;;;;;;;3.40;2.50;;;14.80;99.90;;;;;;5053484;28;20444;-75
2022/07/03 03:30:38;;;;;;;5.60;2.70;;;14.80;99.90;;;;;;5054073;28;20110;-74
2022/07/03 03:33:08;;;;;;;3.80;2.78;;;14.80;99.90;;;;;;5021414;28;20033;-74
2022/07/03 03:35:35;;;;;;;4.75;2.67;;;14.80;99.90;;;;;;5053412;28;20409;-74
2022/07/03 03:38:01;;;;;;;4.13;2.38;;;14.80;99.90;;;;;;5037274;28;20044;-74
2022/07/03 03:40:26;;;;;;;4.57;2.63;;;14.80;99.90;;;;;;5026305;28;20038;-73
2022/07/03 03:42:52;;;;;;;4.20;2.78;;;14.90;99.90;;;;;;5048495;28;20120;-73
2022/07/03 03:45:18;;;;;;;4.45;2.67;;;14.90;99.90;;;;;;5038627;28;20044;-74
2022/07/03 03:47:43;;;;;;;4.13;2.72;;;15.00;99.90;;;;;;5042594;28;20048;-74
2022/07/03 03:50:09;;;;;;;4.70;2.78;;;15.00;99.90;;;;;;5051555;28;20046;-74
2022/07/03 03:52:35;;;;;;;4.65;2.80;;;14.90;99.90;;;;;;5048066;28;20037;-74
2022/07/03 03:55:01;;;;;;;4.72;2.47;;;15.00;99.90;;;;;;5036747;28;20402;-74
2022/07/03 03:57:27;;;;;;;4.28;2.88;;;15.00;99.90;;;;;;5039215;28;20033;-74
2022/07/03 03:59:54;;;;;;;5.85;2.95;;;15.00;99.90;;;;;;5070851;28;20037;-74
2022/07/03 04:02:19;;;;;;;4.82;2.88;;;15.10;99.90;;;;;;5033286;28;20393;-74
2022/07/03 04:04:45;;;;;;;6.70;3.40;;;15.10;99.90;;;;;;5054501;28;20037;-74
2022/07/03 04:07:11;;;;;;;6.75;3.30;;;15.10;99.90;;;;;;5037381;28;20041;-74
2022/07/03 04:09:37;;;;;;;7.20;3.83;;;15.20;99.90;;;;;;5054111;28;20124;-74
2022/07/03 04:12:03;;;;;;;5.03;2.72;;;15.00;99.90;;;;;;5044154;28;20055;-74
2022/07/03 04:14:28;;;;;;;6.07;2.80;;;15.00;99.90;;;;;;5051842;28;20072;-74
2022/07/03 04:16:54;;;;;;;4.90;2.88;;;15.10;99.90;;;;;;5054133;28;20068;-74
2022/07/03 04:19:20;;;;;;;4.18;2.67;;;15.10;99.90;;;;;;5023423;28;20040;-74
2022/07/03 04:21:46;;;;;;;5.03;2.60;;;15.10;99.90;;;;;;5055798;28;20033;-73
2022/07/03 04:24:11;;;;;;;4.63;2.40;;;15.00;99.90;;;;;;5050499;28;20382;-74
2022/07/03 04:26:37;;;;;;;4.80;2.50;;;15.10;99.90;;;;;;5036227;28;20048;-74
2022/07/03 04:29:02;;;;;;;4.35;2.50;;;15.10;99.90;;;;;;5037209;28;20033;-74
2022/07/03 04:31:28;;;;;;;4.30;2.17;;;15.20;99.90;;;;;;5053605;28;20068;-74
2022/07/03 04:33:54;;;;;;;4.63;2.22;;;15.20;99.90;;;;;;5036559;28;20086;-74
2022/07/03 04:36:19;;;;;;;3.80;2.60;;;15.10;99.90;;;;;;5054105;28;20044;-74
2022/07/03 04:38:45;;;;;;;4.47;2.60;;;15.10;99.90;;;;;;5052954;28;20033;-74
2022/07/03 04:41:10;;;;;;;5.53;2.50;;;15.10;99.90;;;;;;5048935;28;20519;-75
2022/07/03 04:43:38;;;;;;;4.13;2.80;;;15.10;99.90;;;;;;5048901;28;20175;-74
2022/07/03 04:46:04;;;;;;;4.97;2.78;;;15.10;99.90;;;;;;5054100;28;20088;-74
2022/07/03 04:48:31;;;;;;;5.47;2.85;;;15.10;99.90;;;;;;5066915;28;20124;-74
2022/07/03 04:50:58;;;;;;;4.50;2.88;;;15.10;99.90;;;;;;5054062;28;20408;-74
2022/07/03 04:53:24;;;;;;;5.07;2.95;;;15.10;99.90;;;;;;5048875;28;20052;-74
2022/07/03 04:55:49;;;;;;;5.43;3.05;;;15.10;99.90;;;;;;5038243;28;20045;-74
2022/07/03 04:58:15;;;;;;;5.07;3.28;;;15.10;99.90;;;;;;5018739;28;20045;-74
2022/07/03 05:00:43;;;;;;;5.43;3.30;;;15.00;99.90;;;;;;5033644;28;20045;-74
2022/07/03 05:03:08;;;;;;;6.30;3.63;;;15.10;99.90;;;;;;5059343;28;20061;-74
2022/07/03 05:05:34;;;;;;;6.10;3.97;;;15.10;99.90;;;;;;5050731;28;20072;-74
2022/07/03 05:08:00;;;;;;;7.05;3.83;;;15.10;99.90;;;;;;5035946;28;20120;-74
2022/07/03 05:10:26;;;;;;;7.00;3.70;;;15.10;99.90;;;;;;5053455;28;20049;-74
2022/07/03 05:12:52;;;;;;;6.43;3.70;;;15.20;99.90;;;;;;5051488;28;20144;-74
2022/07/03 05:15:17;;;;;;;7.43;4.03;;;15.20;99.90;;;;;;5037025;28;20394;-75
2022/07/03 05:17:43;;;;;;;8.57;4.10;;;15.30;99.90;;;;;;5033365;28;20481;-75
2022/07/03 05:20:25;;;;;;;6.53;4.20;;;15.30;99.90;;;;;;5052553;28;20043;-75
2022/07/03 05:23:02;;;;;;;7.57;4.30;;;15.40;99.90;;;;;;5047084;28;20493;-75
2022/07/03 05:25:30;;;;;;;6.85;4.30;;;15.50;99.90;;;;;;5043137;28;20079;-75
2022/07/03 05:27:57;;;;;;;8.05;4.70;;;15.50;99.90;;;;;;5046283;28;20481;-75
2022/07/03 05:30:24;;;;;;;8.85;4.70;;;15.60;99.90;;;;;;5035944;28;20051;-75
2022/07/03 05:32:50;;;;;;;7.13;4.72;;;15.70;99.90;;;;;;5023102;28;20046;-75
2022/07/03 05:35:15;;;;;;;7.65;4.18;;;15.80;99.90;;;;;;5043863;28;20046;-75
2022/07/03 05:37:41;;;;;;;8.90;4.60;;;15.90;99.90;;;;;;5049817;28;20033;-75
2022/07/03 05:40:07;;;;;;;6.47;4.07;;;16.00;99.90;;;;;;5036537;28;20048;-76
2022/07/03 05:42:33;;;;;;;7.35;4.60;;;16.00;99.90;;;;;;5035897;28;20102;-77
2022/07/03 05:45:00;;;;;;;8.93;4.90;;;16.10;99.90;;;;;;5036231;28;20485;-74
2022/07/03 05:47:25;;;;;;;6.32;4.70;;;16.20;99.90;;;;;;5068700;28;20045;-75
2022/07/03 05:49:51;;;;;;;7.90;5.13;;;16.20;99.90;;;;;;5051405;28;20111;-75
2022/07/03 05:52:17;;;;;;;6.85;4.90;;;16.20;99.90;;;;;;5036103;28;20397;-74
2022/07/03 05:54:43;;;;;;;7.78;4.80;;;16.30;99.90;;;;;;5069152;28;20118;-75
2022/07/03 05:57:09;;;;;;;8.55;5.18;;;16.40;99.90;;;;;;5050897;28;20037;-75
2022/07/03 05:59:34;;;;;;;7.38;4.90;;;16.60;99.90;;;;;;5052861;28;20039;-75
2022/07/03 06:02:00;;;;;;;7.40;4.05;;;16.80;99.90;;;;;;5052730;28;20049;-75
2022/07/03 06:04:26;;;;;;;6.20;4.40;;;16.80;99.90;;;;;;5052355;28;20560;-75
2022/07/03 06:06:51;;;;;;;7.43;4.57;;;16.90;99.90;;;;;;5049856;28;20113;-75
2022/07/03 06:09:17;;;;;;;5.10;3.63;;;16.90;99.90;;;;;;5034542;28;20040;-75
2022/07/03 06:11:43;;;;;;;7.22;4.03;;;16.90;99.90;;;;;;5033231;28;20493;-74
2022/07/03 06:14:08;;;;;;;7.10;4.10;;;16.90;99.90;;;;;;5045639;28;20099;-75
2022/07/03 06:16:34;;;;;;;6.70;3.97;;;17.00;99.90;;;;;;5051438;28;20116;-75
2022/07/03 06:18:59;;;;;;;6.07;3.15;;;17.00;99.90;;;;;;5035522;28;20028;-75
2022/07/03 06:21:25;;;;;;;7.70;3.72;;;17.10;99.90;;;;;;5052337;28;20386;-75
2022/07/03 06:23:50;;;;;;;6.07;3.60;;;17.20;99.90;;;;;;5051603;28;20076;-75
2022/07/03 06:26:16;;;;;;;6.80;3.83;;;17.20;99.90;;;;;;5032518;28;20036;-75
2022/07/03 06:28:43;;;;;;;6.65;3.40;;;17.20;99.90;;;;;;5031364;28;20042;-75
2022/07/03 06:31:08;;;;;;;6.55;3.10;;;17.40;99.90;;;;;;5032408;28;20405;-75
2022/07/03 06:33:34;;;;;;;6.80;3.75;;;17.60;99.90;;;;;;5048953;28;20037;-74
2022/07/03 06:36:00;;;;;;;5.45;3.00;;;17.80;99.90;;;;;;5051857;28;20378;-74
2022/07/03 06:38:25;;;;;;;7.50;2.72;;;18.10;99.90;;;;;;5049616;28;20044;-74
2022/07/03 06:40:51;;;;;;;5.13;2.58;;;18.30;99.90;;;;;;5050977;28;20397;-75
2022/07/03 06:43:17;;;;;;;5.53;2.38;;;18.30;99.90;;;;;;5033048;28;20041;-75
2022/07/03 06:45:42;;;;;;;5.63;2.40;;;18.40;99.90;;;;;;5049997;28;20040;-74
2022/07/03 06:48:08;;;;;;;5.80;2.15;;;18.40;99.90;;;;;;5036563;28;20037;-74
2022/07/03 06:50:33;;;;;;;6.38;2.10;;;18.30;99.90;;;;;;5032009;28;20571;-74
2022/07/03 06:53:00;;;;;;;6.07;2.13;;;18.30;99.90;;;;;;5033201;28;20042;-74
2022/07/03 06:55:26;;;;;;;4.78;1.85;;;18.30;99.90;;;;;;5031711;28;20052;-74
2022/07/03 06:57:51;;;;;;;5.32;2.13;;;18.40;99.90;;;;;;5040136;28;20041;-74
2022/07/03 07:00:17;;;;;;;6.20;2.20;;;18.60;99.90;;;;;;5016428;28;20120;-74
2022/07/03 07:02:43;;;;;;;6.03;2.30;;;18.60;99.90;;;;;;5043523;28;20083;-79
2022/07/03 07:05:09;;;;;;;3.03;1.80;;;18.60;99.90;;;;;;5035082;28;20554;-79
2022/07/03 07:07:34;;;;;;;5.25;2.03;;;18.70;99.90;;;;;;5034604;28;20044;-78
2022/07/03 07:10:00;;;;;;;7.10;2.20;;;18.70;99.90;;;;;;5050128;28;20548;-78
2022/07/03 07:12:25;;;;;;;6.78;2.35;;;18.80;99.90;;;;;;5050122;28;20048;-74
2022/07/03 07:14:51;;;;;;;5.40;2.10;;;18.90;99.90;;;;;;5051549;28;20045;-74
2022/07/03 07:17:17;;;;;;;4.35;2.30;;;19.10;99.90;;;;;;5050322;28;20098;-74
2022/07/03 07:19:42;;;;;;;2.83;1.52;;;19.30;99.90;;;;;;5049257;28;20041;-74
2022/07/03 07:22:08;;;;;;;3.53;1.55;;;19.40;99.90;;;;;;5035019;28;20041;-74
2022/07/03 07:24:34;;;;;;;5.30;1.80;;;19.40;99.90;;;;;;5051806;28;20041;-74
2022/07/03 07:26:59;;;;;;;3.08;1.40;;;19.40;99.90;;;;;;5050728;28;20071;-73
2022/07/03 07:29:25;;;;;;;4.43;1.35;;;19.30;99.90;;;;;;5049288;28;20128;-74
2022/07/03 07:31:51;;;;;;;5.07;1.50;;;19.30;99.90;;;;;;5050811;28;20041;-74
2022/07/03 07:34:16;;;;;;;3.40;1.30;;;19.30;99.90;;;;;;5051247;28;20037;-74
2022/07/03 07:36:42;;;;;;;3.97;1.42;;;19.30;99.90;;;;;;5049210;28;20029;-74
2022/07/03 07:39:09;;;;;;;4.35;1.50;;;19.40;99.90;;;;;;5042695;28;20142;-74
2022/07/03 07:41:35;;;;;;;4.07;1.30;;;19.50;99.90;;;;;;5038333;28;20069;-74
2022/07/03 07:44:01;;;;;;;4.15;1.40;;;19.70;99.90;;;;;;5055202;28;20043;-74
2022/07/03 07:46:27;;;;;;;7.25;2.00;;;19.90;99.90;;;;;;5044577;28;20120;-74
2022/07/03 07:48:52;;;;;;;5.68;1.80;;;20.00;99.90;;;;;;5045760;28;20533;-74
2022/07/03 07:51:18;;;;;;;8.10;2.20;;;20.10;99.90;;;;;;5036655;28;20120;-74
2022/07/03 07:53:44;;;;;;;4.97;1.95;;;20.10;99.90;;;;;;5048968;28;20048;-74
2022/07/03 07:56:10;;;;;;;3.97;1.50;;;20.30;99.90;;;;;;5034824;28;20046;-74
2022/07/03 07:58:35;;;;;;;3.22;1.60;;;20.30;99.90;;;;;;5051144;28;20037;-74
2022/07/03 08:06:29;;;;;;;5.20;1.60;;;20.60;99.90;;;;;;5054666;28;20045;-74
2022/07/03 08:08:55;;;;;;;5.40;1.60;;;20.70;99.90;;;;;;5037122;28;20097;-74
2022/07/03 08:11:20;;;;;;;4.80;1.52;;;20.70;99.90;;;;;;5037203;28;20053;-74
2022/07/03 08:13:46;;;;;;;5.30;1.80;;;20.60;99.90;;;;;;5036095;28;20467;-74
2022/07/03 08:16:13;;;;;;;4.30;1.58;;;20.70;99.90;;;;;;5018002;28;20128;-74
2022/07/03 08:18:39;;;;;;;5.68;1.73;;;20.70;99.90;;;;;;5034868;28;20045;-74
2022/07/03 08:21:04;;;;;;;6.30;1.85;;;20.80;99.90;;;;;;5018050;28;20046;-74
2022/07/03 08:23:30;;;;;;;3.83;1.60;;;20.90;99.90;;;;;;5036955;28;20126;-74
2022/07/03 08:25:56;;;;;;;4.22;1.50;;;20.90;99.90;;;;;;5034401;28;20083;-74
2022/07/03 08:28:21;;;;;;;3.50;1.60;;;21.00;99.90;;;;;;5048976;28;20052;-74
2022/07/03 08:30:47;;;;;;;3.33;1.48;;;20.90;99.90;;;;;;5053301;28;20037;-74
2022/07/03 08:33:12;;;;;;;6.13;1.63;;;20.70;99.90;;;;;;5069112;28;20040;-74
2022/07/03 08:35:38;;;;;;;4.47;1.67;;;20.70;99.90;;;;;;5037565;28;20094;-74
2022/07/03 08:38:04;;;;;;;4.50;1.75;;;20.80;99.90;;;;;;5053319;28;20037;-74
2022/07/03 08:40:31;;;;;;;4.32;1.40;;;20.60;99.90;;;;;;5051558;28;20033;-74
2022/07/03 08:42:58;;;;;;;4.75;1.50;;;20.60;99.90;;;;;;5032711;28;20180;-74
2022/07/03 08:45:25;;;;;;;3.15;1.33;;;20.50;99.90;;;;;;5052904;28;20550;-75
2022/07/03 08:47:54;;;;;;;4.05;1.30;;;20.40;99.90;;;;;;5038259;28;20041;-74
2022/07/03 08:50:20;;;;;;;5.13;1.38;;;20.20;99.90;;;;;;5055447;28;20045;-74
2022/07/03 08:52:47;;;;;;;6.95;1.42;;;20.20;99.90;;;;;;5048090;28;20036;-74
2022/07/03 08:55:14;;;;;;;3.45;1.42;;;20.00;99.90;;;;;;5043366;28;20548;-74
2022/07/03 08:57:42;;;;;;;3.40;1.20;;;20.10;99.90;;;;;;5051990;28;20040;-74
2022/07/03 09:00:10;;;;;;;3.10;1.30;;;20.00;99.90;;;;;;5035703;28;20123;-74
2022/07/03 09:02:40;;;;;;;3.88;1.20;;;20.10;99.90;;;;;;5036093;28;20033;-74
2022/07/03 09:05:07;;;;;;;3.63;1.10;;;20.30;99.90;;;;;;5051842;28;20045;-74
2022/07/03 09:07:37;;;;;;;5.55;1.40;;;20.30;99.90;;;;;;5038238;28;20451;-74
2022/07/03 09:10:04;;;;;;;5.70;1.20;;;20.50;99.90;;;;;;5039074;28;20041;-74
2022/07/03 09:12:34;;;;;;;4.40;1.10;;;20.50;99.90;;;;;;5032773;28;20041;-74
2022/07/03 09:15:00;;;;;;;4.30;1.17;;;20.60;99.90;;;;;;5052930;28;20120;-74
2022/07/03 09:17:27;;;;;;;3.35;1.45;;;20.60;99.90;;;;;;5064404;28;20119;-74
2022/07/03 09:19:53;;;;;;;3.42;1.13;;;20.70;99.90;;;;;;5052004;28;20083;-74
2022/07/03 09:22:23;;;;;;;4.55;1.08;;;20.90;99.90;;;;;;5051577;28;20033;-74
2022/07/03 09:24:54;;;;;;;4.05;1.40;;;21.10;99.90;;;;;;5050463;28;20044;-74
2022/07/03 09:27:21;;;;;;;1.73;0.87;;;21.20;99.90;;;;;;5047586;28;20044;-74
2022/07/03 09:30:01;;;;;;;5.57;1.27;;;21.40;99.90;;;;;;5052354;28;20052;-74
2022/07/03 09:32:44;;;;;;;5.85;1.00;;;21.50;99.90;;;;;;5040812;28;20041;-74
2022/07/03 09:35:21;;;;;;;3.67;1.08;;;21.60;99.90;;;;;;5050649;28;20055;-74
2022/07/03 09:37:51;;;;;;;3.28;1.15;;;21.60;99.90;;;;;;5039108;28;20049;-74
2022/07/03 09:40:17;;;;;;;4.88;1.40;;;21.60;99.90;;;;;;5034168;28;20041;-74
2022/07/03 09:43:06;;;;;;;4.38;1.20;;;21.80;99.90;;;;;;5025873;28;20099;-74
2022/07/03 09:45:51;;;;;;;3.40;1.10;;;21.90;99.90;;;;;;5051155;28;20040;-74
2022/07/03 09:48:34;;;;;;;4.13;1.00;;;22.00;99.90;;;;;;5035590;28;20082;-74
2022/07/03 09:51:10;;;;;;;3.30;1.10;;;21.90;99.90;;;;;;5066629;28;20049;-74
2022/07/03 09:53:56;;;;;;;6.78;1.00;;;21.90;99.90;;;;;;5057841;28;20037;-74
2022/07/03 09:56:34;;;;;;;2.33;0.90;;;21.80;99.90;;;;;;5066577;28;20040;-74
2022/07/03 09:59:13;;;;;;;2.05;0.65;;;22.10;99.90;;;;;;5034301;28;20033;-73
2022/07/03 10:01:40;;;;;;;2.83;0.88;;;22.20;99.90;;;;;;5034920;28;20028;-74
2022/07/03 10:04:14;;;;;;;4.18;1.00;;;22.30;99.90;;;;;;5051063;28;20029;-74
2022/07/03 10:06:54;;;;;;;2.35;0.80;;;22.40;99.90;;;;;;5045148;28;20497;-74
2022/07/03 10:09:22;;;;;;;1.50;0.65;;;22.50;99.90;;;;;;5035136;28;20048;-74
2022/07/03 10:11:48;;;;;;;2.90;0.98;;;22.50;99.90;;;;;;5028687;28;20073;-74
2022/07/03 10:14:19;;;;;;;2.72;0.85;;;22.70;99.90;;;;;;5031873;28;20037;-74
2022/07/03 10:16:45;;;;;;;1.73;0.77;;;22.80;99.90;;;;;;5025463;28;20034;-74
2022/07/03 10:19:19;;;;;;;2.05;0.70;;;22.80;99.90;;;;;;5048301;28;20105;-74
2022/07/03 10:21:53;;;;;;;2.10;0.73;;;22.80;99.80;;;;;;5054780;28;20068;-74
2022/07/03 10:24:22;;;;;;;4.28;1.10;;;22.70;99.90;;;;;;5050484;28;20477;-74
2022/07/03 10:26:49;;;;;;;3.05;0.90;;;22.70;99.90;;;;;;5051528;28;20041;-74
2022/07/03 10:29:15;;;;;;;1.15;0.77;;;22.70;99.90;;;;;;5022713;28;20033;-74
2022/07/03 10:31:45;;;;;;;2.30;1.02;;;22.60;99.90;;;;;;5050634;28;20037;-74
2022/07/03 10:34:11;;;;;;;2.90;0.93;;;22.60;99.90;;;;;;5035213;28;20036;-73
2022/07/03 10:36:38;;;;;;;2.40;0.95;;;22.60;99.90;;;;;;5047699;28;20041;-74
2022/07/03 10:39:06;;;;;;;2.80;0.95;;;22.60;99.90;;;;;;5031409;28;20119;-74
2022/07/03 10:47:40;;;;;;;2.40;0.90;;;22.50;99.90;;;;;;5044405;28;20493;-74
2022/07/03 10:50:11;;;;;;;3.72;1.10;;;22.60;99.90;;;;;;5032995;28;20068;-74
2022/07/03 10:52:37;;;;;;;2.20;1.00;;;22.70;99.90;;;;;;5050749;28;20421;-74
2022/07/03 10:55:06;;;;;;;2.88;1.02;;;22.60;99.90;;;;;;5043901;28;20029;-74
2022/07/03 10:57:32;;;;;;;3.70;1.15;;;22.60;99.90;;;;;;5046657;28;20072;-74
2022/07/03 11:00:00;;;;;;;3.55;0.90;;;22.50;99.90;;;;;;5034521;28;20040;-74
2022/07/03 11:02:39;;;;;;;2.17;0.80;;;22.30;99.90;;;;;;5033084;28;20037;-74
2022/07/03 11:05:12;;;;;;;2.40;1.00;;;22.30;99.90;;;;;;5049292;28;20045;-74
2022/07/03 11:08:04;;;;;;;4.32;0.95;;;22.40;99.90;;;;;;5049325;28;20045;-74
2022/07/03 11:10:31;;;;;;;2.75;1.00;;;22.40;99.90;;;;;;5023296;28;20124;-74
2022/07/03 11:13:01;;;;;;;4.28;1.38;;;22.50;99.90;;;;;;5032994;28;20429;-74
2022/07/03 11:15:47;;;;;;;2.13;0.93;;;22.60;99.90;;;;;;5051066;28;20433;-74
2022/07/03 11:18:15;;;;;;;2.38;0.98;;;22.50;99.90;;;;;;5049548;28;20044;-74
2022/07/03 11:20:44;;;;;;;4.40;1.00;;;22.40;99.90;;;;;;5035475;28;20068;-74
2022/07/03 11:23:09;;;;;;;2.38;1.00;;;22.20;99.90;;;;;;5054133;28;20032;-74
2022/07/03 11:25:41;;;;;;;2.97;0.98;;;22.00;99.90;;;;;;5054498;28;20120;-74
2022/07/03 11:28:07;;;;;;;4.40;1.05;;;22.10;99.90;;;;;;5020317;28;20457;-74
2022/07/03 11:30:33;;;;;;;3.53;1.10;;;22.30;99.90;;;;;;5037894;28;20099;-74
2022/07/03 11:33:00;;;;;;;2.15;1.00;;;22.40;99.90;;;;;;5053748;28;20091;-74
2022/07/03 11:35:54;;;;;;;3.47;1.10;;;22.20;99.90;;;;;;5055091;28;20028;-74
2022/07/03 11:38:25;;;;;;;2.22;1.00;;;22.10;99.90;;;;;;5035395;28;20480;-74
2022/07/03 11:40:53;;;;;;;3.22;1.00;;;22.30;99.90;;;;;;5037636;28;20025;-74
2022/07/03 11:43:19;;;;;;;3.63;0.98;;;22.10;99.90;;;;;;5054601;28;20044;-74
2022/07/03 11:45:46;;;;;;;1.83;1.10;;;22.10;99.90;;;;;;5049816;28;20568;-74
2022/07/03 11:48:14;;;;;;;3.10;1.10;;;22.00;99.90;;;;;;5052937;28;20041;-74
2022/07/03 11:50:41;;;;;;;2.28;0.90;;;21.90;99.90;;;;;;5043048;28;20122;-74
2022/07/03 11:53:17;;;;;;;4.90;1.20;;;21.90;99.90;;;;;;5023950;28;20045;-74
2022/07/03 11:55:57;;;;;;;3.10;1.10;;;21.80;99.90;;;;;;5035527;28;20033;-74
2022/07/03 11:58:24;;;;;;;2.75;1.08;;;22.00;99.90;;;;;;5067921;28;20120;-74
2022/07/03 12:00:51;;;;;;;3.92;1.38;;;22.20;99.90;;;;;;5065545;28;20040;-74
2022/07/03 12:03:26;;;;;;;3.38;1.30;;;22.40;99.90;;;;;;5029702;28;20071;-74
2022/07/03 12:05:55;;;;;;;3.60;1.30;;;22.50;99.90;;;;;;5028682;28;20049;-74
2022/07/03 12:08:31;;;;;;;7.07;1.50;;;22.40;99.90;;;;;;5049361;28;20550;-75
2022/07/03 12:11:07;;;;;;;7.18;1.50;;;22.20;99.90;;;;;;5022885;28;20041;-74
2022/07/03 12:13:33;;;;;;;3.15;1.30;;;22.00;99.90;;;;;;5047333;28;20107;-74
2022/07/03 12:16:04;;;;;;;4.65;1.60;;;21.70;99.90;;;;;;5034979;28;20038;-74
2022/07/03 12:18:53;;;;;;;3.77;1.47;;;21.80;99.90;;;;;;5045950;28;20094;-74
2022/07/03 12:21:21;;;;;;;4.65;1.58;;;21.90;99.90;;;;;;5048448;28;20029;-74
2022/07/03 12:23:52;;;;;;;3.15;1.23;;;21.90;99.90;;;;;;5066516;28;20051;-75
2022/07/03 12:26:32;;;;;;;2.93;1.20;;;21.70;99.90;;;;;;5045582;28;20502;-74
2022/07/03 12:29:00;;;;;;;3.65;1.20;;;21.60;99.90;;;;;;5067579;28;20295;-74
2022/07/03 12:31:26;;;;;;;4.00;1.17;;;21.70;99.90;;;;;;5032059;28;20037;-74
2022/07/03 12:33:52;;;;;;;4.15;1.30;;;21.90;99.90;;;;;;5033527;28;20052;-75
2022/07/03 12:36:18;;;;;;;4.30;1.40;;;21.90;99.90;;;;;;5055874;28;20032;-74
2022/07/03 12:38:48;;;;;;;3.45;1.10;;;22.00;99.90;;;;;;5069903;28;20032;-74
2022/07/03 12:41:15;;;;;;;3.95;1.23;;;22.00;99.90;;;;;;5042478;28;20037;-74
2022/07/03 12:43:42;;;;;;;4.57;1.30;;;22.10;99.90;;;;;;5042732;28;20087;-75
2022/07/03 12:46:22;;;;;;;6.35;1.10;;;22.00;99.90;;;;;;5027846;28;20102;-75
2022/07/03 12:49:09;;;;;;;2.22;0.90;;;22.10;99.90;;;;;;5046422;28;20541;-74
2022/07/03 12:51:40;;;;;;;4.68;0.98;;;22.10;99.90;;;;;;5039130;28;20591;-74
2022/07/03 12:54:32;;;;;;;3.90;1.08;;;22.10;99.90;;;;;;5029605;28;20033;-74
2022/07/03 13:00:06;;;;;;;4.88;0.95;;;21.80;99.90;;;;;;5038112;28;20096;-74
2022/07/03 13:02:36;;;;;;;4.22;1.10;;;21.70;99.90;;;;;;5026644;28;20036;-75
2022/07/03 13:05:14;;;;;;;4.50;1.10;;;21.70;99.90;;;;;;5042333;28;20087;-75
2022/07/03 13:07:41;;;;;;;3.50;1.05;;;21.80;99.90;;;;;;5028674;28;20438;-75
2022/07/03 13:10:08;;;;;;;4.97;1.27;;;21.90;99.90;;;;;;5043886;28;20041;-74
2022/07/03 13:12:34;;;;;;;6.25;1.45;;;22.00;99.90;;;;;;5032651;28;20044;-74
2022/07/03 13:15:01;;;;;;;6.35;1.40;;;22.00;99.90;;;;;;5043678;28;20049;-75